Time;durP1;ratioP1;P1;durP2;ratioP2;P2;SDS_P1;SDS_P2;PMS_P1;PMS_P2;Temp;Humidity;BMP_temperature;BMP_pressure;BME280_temperature;BME280_humidity;BME280_pressure;Samples;Min_cycle;Max_cycle;Signal;HPM_P1;HPM_P2
2022/03/18 00:01:46;;;;;;;20.23;7.28;;;;;;;7.00;84.58;101952.22;5050215;28;20167;-66
2022/03/18 00:04:12;;;;;;;21.92;6.95;;;;;;;6.96;85.42;101955.81;5050415;28;20475;-65
2022/03/18 00:06:37;;;;;;;21.13;7.10;;;;;;;6.94;85.63;101960.22;5049765;28;20076;-65
2022/03/18 00:09:03;;;;;;;21.25;6.50;;;;;;;6.86;85.60;101949.09;5049532;28;20033;-66
2022/03/18 00:11:28;;;;;;;28.08;8.57;;;;;;;6.86;85.63;101954.31;5049664;28;20486;-66
2022/03/18 00:13:55;;;;;;;29.17;7.43;;;;;;;6.88;85.68;101960.38;5049791;28;20045;-68
2022/03/18 00:16:20;;;;;;;24.90;6.50;;;;;;;6.85;85.75;101956.06;5049060;28;20478;-67
2022/03/18 00:18:45;;;;;;;21.60;6.43;;;;;;;6.83;85.62;101968.31;5043457;28;20069;-66
2022/03/18 00:21:12;;;;;;;16.27;5.82;;;;;;;6.82;85.79;101963.97;5047414;28;20029;-66
2022/03/18 00:23:37;;;;;;;20.58;6.07;;;;;;;6.77;85.34;101961.47;5049085;28;20066;-66
2022/03/18 00:26:02;;;;;;;23.63;6.75;;;;;;;6.76;85.21;101967.59;5049238;28;20049;-68
2022/03/18 00:28:28;;;;;;;17.75;6.13;;;;;;;6.76;85.08;101962.38;5049402;28;20074;-66
2022/03/18 00:30:53;;;;;;;18.85;5.68;;;;;;;6.76;85.04;101959.78;5050332;28;20021;-68
2022/03/18 00:33:20;;;;;;;22.92;5.47;;;;;;;6.72;84.66;101963.34;5048045;28;20123;-67
2022/03/18 00:35:45;;;;;;;24.35;5.78;;;;;;;6.73;84.58;101969.41;5049327;28;20036;-66
2022/03/18 00:38:11;;;;;;;17.20;5.18;;;;;;;6.74;84.49;101971.97;5049195;28;20029;-67
2022/03/18 00:40:36;;;;;;;27.30;5.55;;;;;;;6.73;84.34;101975.50;5049216;28;20494;-66
2022/03/18 00:43:03;;;;;;;23.10;5.47;;;;;;;6.73;83.80;101974.63;5048923;28;20531;-66
2022/03/18 00:45:29;;;;;;;15.70;4.90;;;;;;;6.59;84.56;101966.28;5049445;28;20037;-66
2022/03/18 00:53:22;;;;;;;29.65;5.68;;;;;;;6.63;84.31;101976.59;5048601;28;20075;-67
2022/03/18 00:55:47;;;;;;;26.33;5.35;;;;;;;6.64;84.60;101974.88;5049283;28;20037;-64
2022/03/18 00:58:12;;;;;;;23.52;6.32;;;;;;;6.65;84.18;101979.19;5049306;28;20107;-67
2022/03/18 01:00:37;;;;;;;15.95;5.47;;;;;;;6.61;84.04;101980.16;5048870;28;20480;-66
2022/03/18 01:03:05;;;;;;;25.98;5.95;;;;;;;6.59;84.27;101989.72;5047564;28;20110;-66
2022/03/18 01:05:31;;;;;;;38.53;5.43;;;;;;;6.59;84.38;101990.59;5048563;28;20561;-67
2022/03/18 01:07:59;;;;;;;22.08;5.55;;;;;;;6.59;84.76;101987.13;5043094;28;20108;-64
2022/03/18 01:10:24;;;;;;;31.57;6.83;;;;;;;6.58;84.93;101993.25;5052115;28;20033;-65
2022/03/18 01:12:49;;;;;;;23.05;5.65;;;;;;;6.55;84.18;101991.56;5048866;28;20032;-66
2022/03/18 01:15:15;;;;;;;27.50;5.63;;;;;;;6.59;84.20;101994.94;5041286;28;20491;-65
2022/03/18 01:17:40;;;;;;;37.75;5.95;;;;;;;6.54;84.23;101997.66;5048638;28;20044;-66
2022/03/18 01:20:06;;;;;;;23.83;5.15;;;;;;;6.50;84.31;101994.28;5041642;28;20633;-63
2022/03/18 01:22:31;;;;;;;24.02;5.22;;;;;;;6.52;84.67;101996.81;5048635;28;20041;-66
2022/03/18 01:24:57;;;;;;;23.25;5.13;;;;;;;6.50;84.65;101994.28;5048510;28;20074;-66
2022/03/18 01:27:22;;;;;;;19.75;5.00;;;;;;;6.49;84.54;102003.00;5047360;28;20380;-66
2022/03/18 01:29:48;;;;;;;21.35;4.57;;;;;;;6.52;84.70;102002.03;5046892;28;20052;-66
2022/03/18 01:32:13;;;;;;;20.02;6.55;;;;;;;6.57;84.30;101996.75;5048028;28;20033;-67
2022/03/18 01:34:38;;;;;;;23.27;5.03;;;;;;;6.52;84.70;101999.44;5051990;28;20383;-66
2022/03/18 01:37:04;;;;;;;25.17;5.55;;;;;;;6.46;84.82;102003.06;5054615;28;20072;-67
2022/03/18 01:39:29;;;;;;;22.20;5.65;;;;;;;6.46;84.52;102005.66;5052097;28;20037;-67
2022/03/18 01:41:54;;;;;;;17.02;5.53;;;;;;;6.40;84.56;102008.38;5052472;28;20060;-65
2022/03/18 01:44:20;;;;;;;28.75;5.10;;;;;;;6.40;84.79;102010.13;5051844;28;20578;-68
2022/03/18 01:46:46;;;;;;;25.27;6.13;;;;;;;6.41;84.54;102014.44;5052326;28;20536;-66
2022/03/18 01:49:11;;;;;;;21.70;4.82;;;;;;;6.39;84.88;102014.50;5052376;28;20024;-64
2022/03/18 01:51:36;;;;;;;28.17;5.28;;;;;;;6.40;84.52;102013.59;5052350;28;20406;-66
2022/03/18 01:56:47;;;;;;;24.95;5.85;;;;;;;6.42;84.45;102022.25;5052452;28;20102;-68
2022/03/18 01:59:13;;;;;;;30.95;5.40;;;;;;;6.39;84.24;102017.09;5051498;28;20029;-67
2022/03/18 02:01:39;;;;;;;25.70;5.40;;;;;;;6.38;84.13;102031.03;5054096;28;20362;-65
2022/03/18 02:04:04;;;;;;;24.42;5.07;;;;;;;6.37;84.18;102031.03;5051988;28;20021;-67
2022/03/18 02:06:30;;;;;;;18.50;4.82;;;;;;;6.36;84.34;102032.78;5051905;28;20063;-67
2022/03/18 02:08:55;;;;;;;27.02;6.22;;;;;;;6.36;84.42;102027.59;5050946;28;20041;-66
2022/03/18 02:11:22;;;;;;;26.10;5.15;;;;;;;6.38;83.91;102025.81;5052120;28;20041;-67
2022/03/18 02:13:51;;;;;;;24.15;5.45;;;;;;;6.29;83.74;102026.00;5052422;28;20037;-66
2022/03/18 02:16:17;;;;;;;18.00;4.60;;;;;;;6.30;84.16;102028.59;5052090;28;20025;-65
2022/03/18 02:18:42;;;;;;;19.20;4.15;;;;;;;6.27;83.95;102027.78;5049496;28;20024;-65
2022/03/18 02:21:08;;;;;;;32.05;5.72;;;;;;;6.31;83.41;102029.44;5049379;28;20050;-66
2022/03/18 02:23:34;;;;;;;17.02;5.30;;;;;;;6.37;83.13;102042.31;5050699;28;20103;-66
2022/03/18 02:25:59;;;;;;;29.60;5.47;;;;;;;6.26;83.57;102039.09;5051403;28;20056;-66
2022/03/18 02:28:25;;;;;;;23.50;4.40;;;;;;;6.30;83.23;102043.34;5051588;28;20021;-66
2022/03/18 02:30:50;;;;;;;28.00;5.35;;;;;;;6.34;82.76;102041.53;5052084;28;20025;-66
2022/03/18 02:33:17;;;;;;;36.78;5.00;;;;;;;6.36;82.83;102043.22;5050462;28;20044;-66
2022/03/18 02:35:42;;;;;;;27.05;5.28;;;;;;;6.35;82.77;102048.47;5054792;28;20029;-66
2022/03/18 02:38:07;;;;;;;29.35;4.80;;;;;;;6.30;83.09;102046.81;5051428;28;20032;-66
2022/03/18 02:40:33;;;;;;;29.08;5.25;;;;;;;6.28;82.70;102055.56;5051071;28;20040;-66
2022/03/18 02:42:58;;;;;;;17.10;4.63;;;;;;;6.26;83.04;102052.09;5051140;28;20025;-65
2022/03/18 02:45:23;;;;;;;23.10;5.88;;;;;;;6.19;82.80;102051.41;5050997;28;20322;-66
2022/03/18 02:47:49;;;;;;;32.40;5.85;;;;;;;6.16;82.83;102051.47;5051170;28;20391;-66
2022/03/18 02:50:15;;;;;;;23.20;4.50;;;;;;;6.12;83.26;102064.53;5051348;28;20517;-65
2022/03/18 02:52:41;;;;;;;25.20;4.22;;;;;;;6.15;83.21;102059.28;5050944;28;20431;-66
2022/03/18 02:55:07;;;;;;;32.08;5.07;;;;;;;6.14;83.38;102062.78;5049511;28;20055;-65
2022/03/18 02:57:33;;;;;;;29.15;5.18;;;;;;;6.12;82.92;102068.03;5053480;28;20102;-67
2022/03/18 02:59:59;;;;;;;30.48;4.95;;;;;;;6.09;83.20;102077.66;5050744;28;20440;-65
2022/03/18 03:02:25;;;;;;;32.78;5.30;;;;;;;6.07;83.31;102075.06;5050594;28;20070;-66
2022/03/18 03:10:18;;;;;;;37.55;7.63;;;;;;;6.06;83.15;102082.03;5050796;28;20036;-68
2022/03/18 03:12:43;;;;;;;22.45;4.63;;;;;;;6.05;83.09;102090.72;5049499;28;20104;-66
2022/03/18 03:15:08;;;;;;;24.10;4.85;;;;;;;6.08;82.86;102081.97;5057873;22;20128;-71
2022/03/18 03:17:34;;;;;;;32.40;4.43;;;;;;;6.04;82.95;102094.22;5067160;28;20044;-72
2022/03/18 03:19:59;;;;;;;25.70;5.43;;;;;;;6.02;83.05;102098.59;5068188;28;20086;-71
2022/03/18 03:22:24;;;;;;;24.48;4.80;;;;;;;5.99;82.87;102093.44;5070639;28;20079;-70
2022/03/18 03:24:50;;;;;;;27.33;4.18;;;;;;;5.97;82.94;102105.66;5069523;28;20071;-71
2022/03/18 03:27:15;;;;;;;33.08;4.40;;;;;;;5.96;83.34;102111.72;5065334;28;20122;-70
2022/03/18 03:29:41;;;;;;;32.25;4.88;;;;;;;5.98;83.28;102116.91;5070326;28;20048;-71
2022/03/18 03:32:06;;;;;;;24.77;5.13;;;;;;;5.98;82.72;102119.53;5069856;28;20456;-71
2022/03/18 03:34:32;;;;;;;25.27;4.70;;;;;;;5.97;82.72;102113.47;5068245;28;20025;-71
2022/03/18 03:36:58;;;;;;;24.48;4.28;;;;;;;5.97;82.55;102121.28;5067654;28;20020;-71
2022/03/18 03:39:24;;;;;;;27.75;4.45;;;;;;;5.96;82.72;102127.34;5069426;28;20114;-71
2022/03/18 03:41:51;;;;;;;26.48;4.90;;;;;;;5.94;82.63;102142.16;5069913;28;20623;-72
2022/03/18 03:44:17;;;;;;;24.63;5.60;;;;;;;5.93;82.67;102132.63;5069593;28;20695;-72
2022/03/18 03:46:42;;;;;;;26.00;4.22;;;;;;;5.89;82.70;102143.94;5065603;28;20547;-74
2022/03/18 03:49:08;;;;;;;33.10;4.72;;;;;;;5.89;82.88;102145.69;5065550;28;20661;-72
2022/03/18 03:51:34;;;;;;;28.98;4.10;;;;;;;5.89;82.92;102154.34;5069470;28;20036;-71
2022/03/18 03:53:59;;;;;;;35.50;4.57;;;;;;;5.92;82.99;102149.13;5064206;28;20123;-70
2022/03/18 03:56:24;;;;;;;26.13;3.90;;;;;;;5.89;82.38;102145.69;5061110;28;20040;-73
2022/03/18 03:58:50;;;;;;;46.33;5.60;;;;;;;5.85;83.06;102150.06;5069800;28;20033;-72
2022/03/18 04:01:15;;;;;;;30.20;5.35;;;;;;;5.87;82.81;102156.13;5069776;28;20371;-72
2022/03/18 04:03:40;;;;;;;24.05;4.13;;;;;;;5.85;82.83;102160.50;5069416;28;20052;-71
2022/03/18 04:06:06;;;;;;;32.58;5.38;;;;;;;5.80;82.88;102163.19;5069108;28;20122;-72
2022/03/18 04:08:31;;;;;;;20.60;3.92;;;;;;;5.80;83.24;102170.13;5068573;28;20558;-70
2022/03/18 04:10:56;;;;;;;34.60;5.57;;;;;;;5.77;83.16;102173.63;5069156;28;20105;-70
2022/03/18 04:13:22;;;;;;;35.60;5.30;;;;;;;5.75;83.26;102171.97;5068769;28;20016;-71
2022/03/18 04:15:48;;;;;;;31.23;4.60;;;;;;;5.76;83.05;102169.31;5069539;28;20024;-70
2022/03/18 04:18:13;;;;;;;27.48;5.43;;;;;;;5.76;83.03;102176.28;5068078;28;20060;-69
2022/03/18 04:20:39;;;;;;;26.23;3.92;;;;;;;5.74;83.05;102178.88;5066172;28;20113;-70
2022/03/18 04:23:04;;;;;;;24.40;5.47;;;;;;;5.72;83.24;102178.06;5068715;28;20390;-75
2022/03/18 04:25:32;;;;;;;33.25;5.50;;;;;;;5.66;82.92;102185.97;5067405;28;20020;-73
2022/03/18 04:27:59;;;;;;;27.60;4.43;;;;;;;5.68;83.16;102189.41;5066578;28;20028;-74
2022/03/18 04:30:24;;;;;;;35.67;4.70;;;;;;;5.63;83.28;102188.59;5069020;28;20025;-71
2022/03/18 04:32:50;;;;;;;39.58;5.60;;;;;;;5.61;83.14;102190.41;5068320;28;20059;-75
2022/03/18 04:35:15;;;;;;;26.73;4.78;;;;;;;5.61;83.25;102198.22;5065389;28;20474;-71
2022/03/18 04:37:42;;;;;;;27.95;4.30;;;;;;;5.59;83.50;102200.81;5069483;28;20044;-75
2022/03/18 04:40:09;;;;;;;20.80;4.85;;;;;;;5.54;83.54;102204.38;5068907;28;20024;-70
2022/03/18 04:42:34;;;;;;;36.53;5.13;;;;;;;5.52;83.63;102212.19;5069266;28;20024;-73
2022/03/18 04:45:00;;;;;;;24.02;4.95;;;;;;;5.46;83.58;102208.84;5068329;28;20387;-72
2022/03/18 04:47:25;;;;;;;30.90;4.78;;;;;;;5.42;83.64;102210.63;5068631;28;20108;-70
2022/03/18 04:49:50;;;;;;;40.13;4.90;;;;;;;5.39;83.75;102217.63;5068517;28;20053;-71
2022/03/18 04:52:16;;;;;;;37.50;4.97;;;;;;;5.37;84.29;102211.56;5065038;28;20051;-71
2022/03/18 04:54:41;;;;;;;29.95;4.82;;;;;;;5.39;84.30;102222.81;5068410;28;20070;-73
2022/03/18 04:57:15;;;;;;;26.95;4.93;;;;;;;5.41;83.93;102227.09;5070671;28;20050;-71
2022/03/18 04:59:42;;;;;;;32.00;5.35;;;;;;;5.41;84.19;102223.66;5069718;28;20041;-71
2022/03/18 05:02:10;;;;;;;29.73;7.38;;;;;;;5.40;83.80;102224.53;5067312;28;20025;-71
2022/03/18 05:04:38;;;;;;;41.37;6.00;;;;;;;5.34;84.26;102221.16;5064185;28;20028;-72
2022/03/18 05:07:08;;;;;;;42.13;5.38;;;;;;;5.36;84.32;102238.47;5064912;28;20054;-72
2022/03/18 05:09:33;;;;;;;30.83;5.38;;;;;;;5.36;84.02;102235.88;5067951;28;20132;-73
2022/03/18 05:12:02;;;;;;;33.05;5.60;;;;;;;5.36;84.18;102244.53;5064773;28;20448;-72
2022/03/18 05:14:27;;;;;;;45.10;5.85;;;;;;;5.33;83.99;102253.22;5065572;28;20147;-71
2022/03/18 05:16:52;;;;;;;31.88;6.05;;;;;;;5.28;83.96;102249.84;5064474;28;20115;-71
2022/03/18 05:19:18;;;;;;;39.75;5.07;;;;;;;5.23;84.08;102251.66;5069549;28;20047;-74
2022/03/18 05:21:44;;;;;;;31.95;5.28;;;;;;;5.26;83.88;102261.13;5063036;28;20024;-70
2022/03/18 05:24:09;;;;;;;39.58;5.43;;;;;;;5.30;83.98;102260.22;5066845;28;20074;-71
2022/03/18 05:26:36;;;;;;;30.20;4.47;;;;;;;5.27;83.93;102260.28;5066858;28;20037;-70
2022/03/18 05:29:02;;;;;;;30.13;4.82;;;;;;;5.29;83.61;102256.75;5068149;28;20036;-71
2022/03/18 05:31:28;;;;;;;28.02;4.75;;;;;;;5.31;83.79;102259.34;5068413;28;20021;-70
2022/03/18 05:33:56;;;;;;;36.88;4.85;;;;;;;5.29;83.52;102266.31;5068924;28;20017;-69
2022/03/18 05:36:21;;;;;;;26.48;4.97;;;;;;;5.21;84.16;102278.56;5062009;28;20075;-71
2022/03/18 05:38:46;;;;;;;40.47;4.65;;;;;;;5.20;84.62;102279.44;5068637;28;20064;-71
2022/03/18 05:41:12;;;;;;;26.25;4.40;;;;;;;5.15;84.78;102283.81;5066765;28;20116;-69
2022/03/18 05:43:37;;;;;;;45.70;5.78;;;;;;;5.13;84.64;102285.59;5067428;28;20029;-70
2022/03/18 05:46:03;;;;;;;30.08;5.50;;;;;;;5.10;84.92;102286.47;5068511;28;20020;-70
2022/03/18 05:48:29;;;;;;;31.13;5.32;;;;;;;5.05;84.46;102280.47;5067990;28;20029;-68
2022/03/18 05:50:54;;;;;;;39.53;5.78;;;;;;;5.03;85.13;102290.88;5067299;28;20093;-69
2022/03/18 05:53:19;;;;;;;29.77;5.45;;;;;;;5.06;84.65;102293.44;5067771;28;20037;-69
2022/03/18 05:58:29;;;;;;;41.03;5.47;;;;;;;5.05;84.45;102303.88;5064412;28;20055;-70
2022/03/18 06:00:55;;;;;;;31.20;5.78;;;;;;;5.02;84.59;102304.78;5068360;28;20024;-70
2022/03/18 06:03:21;;;;;;;24.65;5.45;;;;;;;5.04;84.43;102302.13;5067753;28;20079;-71
2022/03/18 06:05:46;;;;;;;41.47;6.75;;;;;;;5.07;84.27;102309.91;5066610;28;20039;-70
2022/03/18 06:13:53;;;;;;;26.30;5.70;;;;;;;5.21;83.66;102325.38;5045689;28;20046;-71
2022/03/18 06:16:18;;;;;;;52.60;10.98;;;;;;;5.06;84.00;102331.59;5068182;28;20024;-70
2022/03/18 06:18:44;;;;;;;49.75;6.85;;;;;;;5.18;83.87;102322.78;5064435;28;20024;-69
2022/03/18 06:21:10;;;;;;;35.40;6.13;;;;;;;5.22;83.82;102324.47;5071452;28;20036;-70
2022/03/18 06:23:35;;;;;;;38.92;6.28;;;;;;;5.17;83.18;102336.69;5071596;28;20055;-70
2022/03/18 06:26:01;;;;;;;44.72;8.32;;;;;;;5.27;85.15;102338.31;5069050;28;20455;-71
2022/03/18 06:28:27;;;;;;;32.03;8.50;;;;;;;5.28;85.60;102340.88;5070968;28;20032;-69
2022/03/18 06:30:53;;;;;;;42.40;6.30;;;;;;;5.18;82.88;102347.06;5070491;28;20048;-70
2022/03/18 06:33:18;;;;;;;42.05;5.97;;;;;;;5.12;83.27;102352.34;5070956;28;20055;-69
2022/03/18 06:35:43;;;;;;;43.88;7.00;;;;;;;4.98;83.43;102360.28;5070694;28;20406;-69
2022/03/18 06:38:09;;;;;;;35.03;5.50;;;;;;;4.99;83.49;102358.53;5071628;28;20040;-68
2022/03/18 06:40:34;;;;;;;33.15;5.03;;;;;;;5.04;84.01;102367.16;5070572;28;20043;-71
2022/03/18 06:42:59;;;;;;;39.38;7.13;;;;;;;5.12;82.77;102378.34;5073554;28;20538;-72
2022/03/18 06:45:25;;;;;;;36.13;5.82;;;;;;;5.03;84.19;102379.28;5073860;28;20036;-70
2022/03/18 06:47:50;;;;;;;32.75;5.70;;;;;;;4.96;84.28;102380.22;5077973;28;20119;-69
2022/03/18 06:50:16;;;;;;;39.47;6.80;;;;;;;4.96;84.44;102389.78;5074004;28;20470;-68
2022/03/18 06:52:41;;;;;;;49.00;6.63;;;;;;;4.91;84.49;102389.81;5071524;28;20040;-68
2022/03/18 06:55:07;;;;;;;38.40;6.43;;;;;;;4.79;85.08;102395.13;5070119;28;20056;-70
2022/03/18 06:57:33;;;;;;;43.95;6.85;;;;;;;4.80;84.82;102410.72;5080416;28;20059;-70
2022/03/18 06:59:58;;;;;;;40.88;7.60;;;;;;;4.80;84.94;102409.84;5070784;28;20418;-73
2022/03/18 07:02:26;;;;;;;32.97;5.20;;;;;;;4.83;84.89;102410.69;5069463;28;20422;-68
2022/03/18 07:04:51;;;;;;;43.30;6.25;;;;;;;4.81;84.69;102415.03;5066581;28;20068;-69
2022/03/18 07:07:16;;;;;;;44.85;11.05;;;;;;;4.81;84.81;102412.44;5069128;28;20520;-68
2022/03/18 07:09:41;;;;;;;55.50;6.88;;;;;;;4.80;84.89;102415.03;5071890;28;20021;-71
2022/03/18 07:12:07;;;;;;;32.75;7.85;;;;;;;4.87;84.46;102415.88;5059773;28;20120;-70
2022/03/18 07:14:33;;;;;;;34.08;6.38;;;;;;;4.92;83.82;102414.94;5069274;28;20029;-70
2022/03/18 07:19:43;;;;;;;47.00;6.82;;;;;;;4.95;84.07;102419.25;5073038;28;20066;-70
2022/03/18 07:22:08;;;;;;;28.70;5.78;;;;;;;4.92;84.02;102409.72;5063909;28;20436;-69
2022/03/18 07:24:33;;;;;;;35.70;7.80;;;;;;;4.90;83.97;102424.50;5066008;28;20058;-74
2022/03/18 07:26:59;;;;;;;29.00;5.88;;;;;;;4.87;83.75;102426.25;5068144;28;20068;-72
2022/03/18 07:29:25;;;;;;;42.63;7.13;;;;;;;4.91;84.28;102423.63;5070066;28;20087;-75
2022/03/18 07:31:54;;;;;;;40.47;6.07;;;;;;;4.98;83.63;102434.84;5067800;28;20054;-70
2022/03/18 07:34:21;;;;;;;33.60;7.32;;;;;;;5.05;83.24;102426.97;5069622;28;20048;-72
2022/03/18 07:36:47;;;;;;;41.42;7.20;;;;;;;4.98;82.89;102435.69;5070381;28;20508;-71
2022/03/18 07:39:12;;;;;;;51.13;7.88;;;;;;;4.99;83.03;102432.19;5065687;28;20040;-71
2022/03/18 07:41:38;;;;;;;49.25;10.55;;;;;;;5.08;83.16;102433.88;5066499;28;20385;-73
2022/03/18 07:44:03;;;;;;;37.15;6.97;;;;;;;5.20;82.44;102448.50;5069406;28;20040;-71
2022/03/18 07:46:28;;;;;;;43.03;6.28;;;;;;;5.23;81.83;102445.88;5069548;28;20032;-71
2022/03/18 07:48:54;;;;;;;44.47;6.80;;;;;;;5.27;81.73;102448.41;5070312;28;20423;-72
2022/03/18 07:51:19;;;;;;;30.00;7.15;;;;;;;5.19;82.18;102449.34;5065445;28;20587;-69
2022/03/18 07:53:44;;;;;;;43.13;7.57;;;;;;;5.44;81.57;102448.22;5069471;28;20039;-71
2022/03/18 07:56:10;;;;;;;35.38;8.20;;;;;;;5.34;81.24;102462.22;5068546;28;20044;-72
2022/03/18 07:58:35;;;;;;;36.00;6.28;;;;;;;5.45;80.60;102459.50;5068032;28;20036;-70
2022/03/18 08:01:01;;;;;;;40.28;6.85;;;;;;;5.41;81.20;102456.06;5070435;28;20021;-73
2022/03/18 08:03:26;;;;;;;52.78;6.43;;;;;;;5.56;80.57;102470.66;5069164;28;20036;-75
2022/03/18 08:05:51;;;;;;;40.53;6.20;;;;;;;5.74;79.77;102472.19;5069598;28;20131;-70
2022/03/18 08:08:17;;;;;;;42.28;6.88;;;;;;;5.98;78.78;102469.34;5068924;28;20041;-70
2022/03/18 08:10:42;;;;;;;33.53;5.68;;;;;;;5.78;78.50;102466.06;5069615;28;20040;-69
2022/03/18 08:13:07;;;;;;;39.72;6.47;;;;;;;5.75;78.93;102473.94;5069050;28;20020;-73
2022/03/18 08:15:33;;;;;;;36.10;6.20;;;;;;;5.64;79.28;102476.66;5069166;28;20036;-71
2022/03/18 08:17:59;;;;;;;36.75;5.72;;;;;;;5.63;79.25;102476.66;5068338;28;20059;-70
2022/03/18 08:20:25;;;;;;;37.90;6.32;;;;;;;5.56;79.64;102476.75;5067855;28;20033;-71
2022/03/18 08:22:51;;;;;;;37.58;6.80;;;;;;;5.70;79.80;102475.72;5068310;28;20040;-67
2022/03/18 08:25:18;;;;;;;34.92;6.40;;;;;;;5.75;79.34;102486.94;5069790;28;20035;-70
2022/03/18 08:27:43;;;;;;;42.05;6.18;;;;;;;5.75;78.77;102494.75;5071759;28;20674;-70
2022/03/18 08:30:11;;;;;;;36.13;6.15;;;;;;;5.89;78.91;102497.19;5073096;28;20035;-70
2022/03/18 08:32:37;;;;;;;26.38;5.50;;;;;;;6.12;78.64;102495.22;5070302;28;20043;-64
2022/03/18 08:35:03;;;;;;;35.47;5.28;;;;;;;5.97;78.15;102503.19;5069465;28;20027;-73
2022/03/18 08:40:13;;;;;;;49.33;6.28;;;;;;;6.20;76.84;102502.94;5069279;28;20100;-69
2022/03/18 08:42:39;;;;;;;34.95;5.78;;;;;;;6.04;77.40;102505.72;5067183;28;20446;-68
2022/03/18 08:45:05;;;;;;;46.70;7.57;;;;;;;6.05;77.61;102506.59;5068547;28;20398;-68
2022/03/18 08:47:31;;;;;;;30.48;5.82;;;;;;;6.12;77.37;102510.84;5068092;28;20600;-68
2022/03/18 08:49:56;;;;;;;42.00;7.65;;;;;;;6.21;77.69;102517.66;5068742;28;20120;-70
2022/03/18 08:52:42;;;;;;;38.28;7.35;;;;;;;6.27;77.04;102512.38;5069071;28;20579;-69
2022/03/18 08:55:08;;;;;;;36.97;5.90;;;;;;;6.18;77.31;102515.94;5025810;28;20037;-69
2022/03/18 08:57:37;;;;;;;50.83;6.78;;;;;;;6.18;77.46;102522.91;5024975;28;20044;-68
2022/03/18 09:00:05;;;;;;;40.78;8.45;;;;;;;6.32;76.75;102521.00;5026020;28;20187;-69
2022/03/18 09:02:30;;;;;;;36.88;6.72;;;;;;;6.33;76.71;102512.28;5018788;28;20053;-69
2022/03/18 09:04:56;;;;;;;52.47;7.85;;;;;;;6.39;76.60;102522.63;5024690;28;20042;-67
2022/03/18 09:07:21;;;;;;;39.53;6.00;;;;;;;6.54;76.14;102527.63;5025956;28;20127;-68
2022/03/18 09:09:46;;;;;;;50.92;7.05;;;;;;;6.69;75.28;102525.69;5026269;28;20025;-68
2022/03/18 09:12:12;;;;;;;44.45;7.68;;;;;;;6.88;75.25;102527.13;5025674;28;20121;-72
2022/03/18 09:14:37;;;;;;;42.83;7.85;;;;;;;6.91;75.36;102532.31;5024455;28;20665;-69
2022/03/18 09:17:04;;;;;;;40.78;6.60;;;;;;;7.06;73.95;102533.81;5061977;22;20040;-68
2022/03/18 09:19:30;;;;;;;39.65;8.07;;;;;;;7.27;73.48;102537.84;5063424;28;20025;-67
2022/03/18 09:21:55;;;;;;;30.33;6.95;;;;;;;7.35;72.65;102541.16;5068913;28;20025;-67
2022/03/18 09:24:20;;;;;;;32.25;6.88;;;;;;;7.50;71.73;102540.03;5068084;28;20039;-67
2022/03/18 09:26:46;;;;;;;52.38;6.72;;;;;;;7.33;72.48;102539.47;5058729;28;20122;-65
2022/03/18 09:29:12;;;;;;;29.50;5.60;;;;;;;7.54;72.21;102540.84;5051463;28;20041;-66
2022/03/18 09:31:37;;;;;;;39.53;6.70;;;;;;;7.55;71.97;102539.94;5048152;28;20973;-67
2022/03/18 09:34:03;;;;;;;46.78;5.28;;;;;;;7.76;71.40;102543.03;5048634;28;20551;-68
2022/03/18 09:36:28;;;;;;;50.90;8.30;;;;;;;7.78;70.92;102543.00;5037922;28;20045;-69
2022/03/18 09:38:55;;;;;;;46.70;6.60;;;;;;;7.55;71.63;102545.16;5048469;28;20379;-68
2022/03/18 09:41:20;;;;;;;29.65;5.90;;;;;;;7.52;71.89;102548.69;5048226;28;20632;-66
2022/03/18 09:43:46;;;;;;;51.42;6.57;;;;;;;7.59;71.98;102552.06;5046836;28;20052;-68
2022/03/18 09:46:13;;;;;;;47.00;7.43;;;;;;;7.60;72.40;102569.44;5043414;28;20043;-66
2022/03/18 09:48:40;;;;;;;36.72;6.03;;;;;;;7.71;72.10;102560.56;5048082;28;20041;-66
2022/03/18 09:51:06;;;;;;;43.33;6.07;;;;;;;7.57;72.42;102569.53;5047668;28;20040;-67
2022/03/18 09:53:34;;;;;;;32.10;5.75;;;;;;;7.46;72.60;102562.72;5046063;28;20045;-66
2022/03/18 09:56:00;;;;;;;39.47;6.28;;;;;;;7.58;72.77;102571.22;5051437;28;20029;-67
2022/03/18 09:58:26;;;;;;;35.53;6.20;;;;;;;7.66;71.93;102572.81;5051993;28;20040;-68
2022/03/18 10:00:52;;;;;;;36.55;5.28;;;;;;;7.76;71.27;102577.00;5052544;28;20424;-66
2022/03/18 10:03:19;;;;;;;47.40;7.70;;;;;;;7.74;71.55;102578.75;5048370;28;20518;-67
2022/03/18 10:05:59;;;;;;;31.27;6.57;;;;;;;7.71;71.70;102583.16;5049058;28;20165;-66
2022/03/18 10:08:44;;;;;;;58.65;9.35;;;;;;;7.81;71.57;102579.50;5041095;28;20071;-68
2022/03/18 10:11:23;;;;;;;45.17;8.10;;;;;;;7.87;71.34;102570.72;5039888;28;20025;-66
2022/03/18 10:14:15;;;;;;;47.85;10.05;;;;;;;8.03;70.49;102579.09;5043885;28;20033;-65
2022/03/18 10:17:04;;;;;;;80.95;26.05;;;;;;;8.18;70.25;102586.66;5051670;28;20037;-68
2022/03/18 10:19:29;;;;;;;71.95;21.80;;;;;;;8.40;68.91;102587.97;5041170;28;20020;-65
2022/03/18 10:22:03;;;;;;;44.97;11.27;;;;;;;8.37;68.95;102592.34;5044833;28;20079;-64
2022/03/18 10:24:30;;;;;;;60.08;12.93;;;;;;;8.55;69.33;102597.25;5043656;28;20067;-68
2022/03/18 10:27:08;;;;;;;29.83;6.85;;;;;;;8.73;67.15;102588.13;5029859;28;20064;-67
2022/03/18 10:29:46;;;;;;;48.00;10.75;;;;;;;8.84;67.75;102599.22;5041873;28;20644;-66
2022/03/18 10:32:13;;;;;;;40.60;11.40;;;;;;;9.02;67.08;102592.72;5039220;28;20060;-68
2022/03/18 10:37:25;;;;;;;63.72;22.05;;;;;;;9.47;65.12;102589.88;5050411;28;20135;-68
2022/03/18 10:39:59;;;;;;;48.53;11.75;;;;;;;9.30;65.57;102585.03;5045316;28;20048;-68
2022/03/18 10:42:24;;;;;;;47.60;9.98;;;;;;;9.15;64.70;102588.91;5046809;28;20506;-67
2022/03/18 10:45:00;;;;;;;36.67;9.77;;;;;;;9.15;64.36;102595.88;5052777;28;20056;-67
2022/03/18 10:47:29;;;;;;;34.00;9.13;;;;;;;9.19;64.84;102587.91;5050776;28;20037;-67
2022/03/18 10:50:10;;;;;;;58.45;17.55;;;;;;;9.39;63.71;102589.22;5051736;28;20029;-65
2022/03/18 10:52:39;;;;;;;61.33;18.17;;;;;;;9.53;63.99;102601.94;5057517;28;20055;-68
2022/03/18 10:55:20;;;;;;;49.95;13.45;;;;;;;9.43;64.30;102596.09;5055992;28;20028;-66
2022/03/18 10:57:59;;;;;;;44.10;10.27;;;;;;;9.39;64.04;102595.31;5039208;28;20053;-68
2022/03/18 11:00:29;;;;;;;49.78;12.90;;;;;;;9.25;64.73;102596.53;5043374;28;20053;-69
2022/03/18 11:02:59;;;;;;;62.97;12.73;;;;;;;9.37;64.65;102585.75;5042536;28;20045;-69
2022/03/18 11:05:38;;;;;;;48.92;13.63;;;;;;;9.51;64.27;102591.50;5043382;28;20134;-66
2022/03/18 11:08:07;;;;;;;40.90;10.80;;;;;;;9.67;63.80;102592.81;5039747;28;20550;-69
2022/03/18 11:13:21;;;;;;;30.13;9.07;;;;;;;9.44;64.11;102585.56;5043780;28;20047;-66
2022/03/18 11:15:49;;;;;;;54.35;14.43;;;;;;;9.34;63.48;102585.81;5044967;28;20148;-65
2022/03/18 11:18:14;;;;;;;57.22;14.48;;;;;;;9.20;64.35;102588.81;5040718;28;20056;-66
2022/03/18 11:20:45;;;;;;;86.60;26.42;;;;;;;9.29;64.50;102587.72;5044391;28;20037;-67
2022/03/18 11:23:17;;;;;;;49.35;13.90;;;;;;;9.32;63.59;102591.13;5047805;28;20044;-66
2022/03/18 11:25:46;;;;;;;38.35;11.38;;;;;;;9.26;63.76;102590.41;5048847;28;20514;-66
2022/03/18 11:28:19;;;;;;;34.00;8.52;;;;;;;9.37;63.34;102589.22;5050479;28;20048;-67
2022/03/18 11:30:47;;;;;;;45.80;9.00;;;;;;;9.54;62.74;102587.97;5050812;28;20045;-69
2022/03/18 11:33:15;;;;;;;38.40;8.18;;;;;;;9.60;62.87;102586.06;5049346;28;20036;-68
2022/03/18 11:35:52;;;;;;;33.03;7.90;;;;;;;9.80;62.13;102579.44;5049901;28;20033;-67
2022/03/18 11:38:48;;;;;;;28.92;7.57;;;;;;;9.92;61.77;102585.19;5050056;28;20040;-67
2022/03/18 11:41:15;;;;;;;32.10;7.03;;;;;;;10.15;62.28;102583.69;5042934;28;20530;-64
2022/03/18 11:43:41;;;;;;;26.48;6.72;;;;;;;10.47;61.04;102585.44;5049176;28;20045;-66
2022/03/18 11:46:12;;;;;;;42.00;9.55;;;;;;;10.33;60.58;102590.22;5050363;28;20021;-67
2022/03/18 11:48:41;;;;;;;32.55;8.00;;;;;;;10.35;60.57;102589.28;5049440;28;20520;-67
2022/03/18 11:51:31;;;;;;;49.53;10.02;;;;;;;10.23;60.94;102584.31;5048954;28;20045;-66
2022/03/18 11:54:13;;;;;;;43.83;9.35;;;;;;;10.24;60.77;102580.81;5046261;28;20044;-67
2022/03/18 11:56:50;;;;;;;37.97;8.05;;;;;;;10.27;60.85;102585.13;5048292;28;20063;-67